Time;durP1;ratioP1;P1;durP2;ratioP2;P2;SDS_P1;SDS_P2;PMS_P1;PMS_P2;Temp;Humidity;BMP_temperature;BMP_pressure;BME280_temperature;BME280_humidity;BME280_pressure;Samples;Min_cycle;Max_cycle;Signal;HPM_P1;HPM_P2
2021/06/27 00:00:27;;;;;;;8.45;5.81;;;;;;;;;;372656;142;859718;-61
2021/06/27 00:01:28;;;;;;;9.63;6.61;;;;;;;;;;375936;139;857430;-61
2021/06/27 00:02:30;;;;;;;9.30;5.90;;;;;;;;;;379115;139;859182;-61
2021/06/27 00:03:31;;;;;;;8.86;5.91;;;;;;;;;;379136;141;857735;-61
2021/06/27 00:04:33;;;;;;;10.59;6.14;;;;;;;;;;377333;139;857361;-61
2021/06/27 00:05:35;;;;;;;13.25;6.77;;;;;;;;;;376636;139;857378;-61
2021/06/27 00:06:39;;;;;;;9.75;6.52;;;;;;;;;;372215;144;857460;-61
2021/06/27 00:07:40;;;;;;;9.61;5.99;;;;;;;;;;376326;139;865145;-61
2021/06/27 00:08:42;;;;;;;9.74;5.91;;;;;;;;;;374342;139;866268;-61
2021/06/27 00:09:44;;;;;;;13.92;6.86;;;;;;;;;;372929;139;859812;-62
2021/06/27 00:10:46;;;;;;;10.03;6.43;;;;;;;;;;378208;142;865726;-61
2021/06/27 00:11:47;;;;;;;9.58;5.83;;;;;;;;;;376559;139;859935;-61
2021/06/27 00:12:49;;;;;;;9.69;5.48;;;;;;;;;;378333;139;857248;-61
2021/06/27 00:13:50;;;;;;;8.09;5.17;;;;;;;;;;373339;141;857229;-61
2021/06/27 00:14:52;;;;;;;8.73;5.81;;;;;;;;;;373272;139;857347;-61
2021/06/27 00:15:54;;;;;;;12.36;6.00;;;;;;;;;;375525;139;857441;-61
2021/06/27 00:16:56;;;;;;;7.40;5.80;;;;;;;;;;372633;143;858910;-62
2021/06/27 00:17:58;;;;;;;9.94;6.39;;;;;;;;;;375458;142;859184;-62
2021/06/27 00:19:00;;;;;;;10.05;6.14;;;;;;;;;;373987;139;866194;-62
2021/06/27 00:20:02;;;;;;;9.10;5.99;;;;;;;;;;376946;139;858143;-62
2021/06/27 00:21:05;;;;;;;13.71;6.36;;;;;;;;;;372442;144;859259;-62
2021/06/27 00:22:07;;;;;;;7.22;5.67;;;;;;;;;;373998;139;858762;-62
2021/06/27 00:23:08;;;;;;;9.20;5.70;;;;;;;;;;378825;139;857544;-62
2021/06/27 00:24:10;;;;;;;10.64;6.49;;;;;;;;;;384692;139;857364;-62
2021/06/27 00:25:12;;;;;;;8.86;5.96;;;;;;;;;;375726;139;860944;-62
2021/06/27 00:26:14;;;;;;;8.74;5.88;;;;;;;;;;373627;139;865304;-62
2021/06/27 00:27:19;;;;;;;7.94;6.14;;;;;;;;;;373077;139;858235;-62
2021/06/27 00:28:20;;;;;;;11.43;6.09;;;;;;;;;;377629;141;857969;-62
2021/06/27 00:29:22;;;;;;;9.77;5.93;;;;;;;;;;378893;139;857347;-62
2021/06/27 00:30:25;;;;;;;12.23;6.09;;;;;;;;;;368603;142;857456;-62
2021/06/27 00:31:26;;;;;;;10.58;5.91;;;;;;;;;;375293;143;857341;-62
2021/06/27 00:32:28;;;;;;;10.52;6.31;;;;;;;;;;377966;138;857431;-62
2021/06/27 00:33:29;;;;;;;7.30;5.73;;;;;;;;;;377914;138;858909;-62
2021/06/27 00:34:32;;;;;;;10.08;6.23;;;;;;;;;;379717;141;858154;-62
2021/06/27 00:35:33;;;;;;;12.22;6.10;;;;;;;;;;379336;138;858833;-62
2021/06/27 00:36:36;;;;;;;8.07;6.10;;;;;;;;;;370198;142;859019;-63
2021/06/27 00:37:37;;;;;;;8.61;6.47;;;;;;;;;;377109;140;859299;-62
2021/06/27 00:38:39;;;;;;;11.96;6.75;;;;;;;;;;379347;138;858035;-62
2021/06/27 00:39:40;;;;;;;9.40;6.93;;;;;;;;;;379159;138;857424;-62
2021/06/27 00:40:43;;;;;;;12.49;7.93;;;;;;;;;;375486;140;857514;-62
2021/06/27 00:41:44;;;;;;;10.00;6.98;;;;;;;;;;374278;142;857979;-62
2021/06/27 00:42:46;;;;;;;10.46;7.56;;;;;;;;;;377160;139;865194;-61
2021/06/27 00:43:49;;;;;;;7.94;6.58;;;;;;;;;;373597;139;857385;-61
2021/06/27 00:44:50;;;;;;;10.07;6.86;;;;;;;;;;372249;141;865049;-61
2021/06/27 00:45:52;;;;;;;9.89;6.34;;;;;;;;;;373042;142;857831;-61
2021/06/27 00:46:54;;;;;;;14.80;7.28;;;;;;;;;;374541;139;857438;-61
2021/06/27 00:47:58;;;;;;;11.35;6.35;;;;;;;;;;375242;139;857365;-61
2021/06/27 00:48:59;;;;;;;8.06;7.04;;;;;;;;;;377191;142;858904;-61
2021/06/27 00:50:02;;;;;;;8.24;6.41;;;;;;;;;;375782;139;864994;-62
2021/06/27 00:51:04;;;;;;;8.96;6.47;;;;;;;;;;377564;139;865133;-62
2021/06/27 00:52:06;;;;;;;9.79;6.63;;;;;;;;;;381980;139;865539;-62
2021/06/27 00:53:08;;;;;;;8.97;6.44;;;;;;;;;;371787;139;858270;-62
2021/06/27 00:54:10;;;;;;;10.83;6.55;;;;;;;;;;377021;139;857320;-61
2021/06/27 00:55:12;;;;;;;11.84;6.44;;;;;;;;;;373461;139;857306;-62
2021/06/27 00:56:14;;;;;;;9.73;6.21;;;;;;;;;;375067;143;857807;-62
2021/06/27 00:57:15;;;;;;;11.73;6.25;;;;;;;;;;373993;140;859204;-61
2021/06/27 00:58:17;;;;;;;10.29;7.04;;;;;;;;;;377288;139;857299;-62
2021/06/27 00:59:19;;;;;;;8.02;6.31;;;;;;;;;;376411;139;864999;-62
2021/06/27 01:00:22;;;;;;;9.71;6.58;;;;;;;;;;373709;139;857262;-62
2021/06/27 01:01:24;;;;;;;8.56;6.58;;;;;;;;;;371534;140;857376;-61
2021/06/27 01:02:26;;;;;;;10.07;6.21;;;;;;;;;;373413;139;859627;-62
2021/06/27 01:03:27;;;;;;;9.06;6.43;;;;;;;;;;376274;139;864987;-62
2021/06/27 01:04:30;;;;;;;9.40;6.31;;;;;;;;;;374321;139;864971;-61
2021/06/27 01:05:33;;;;;;;9.53;6.47;;;;;;;;;;378771;139;858940;-61
2021/06/27 01:06:36;;;;;;;14.68;6.37;;;;;;;;;;374173;139;865987;-62
2021/06/27 01:07:38;;;;;;;14.00;6.27;;;;;;;;;;375481;140;865881;-62
2021/06/27 01:08:40;;;;;;;8.85;6.53;;;;;;;;;;374862;140;865207;-62
2021/06/27 01:09:41;;;;;;;10.70;6.46;;;;;;;;;;376174;140;858695;-61
2021/06/27 01:10:47;;;;;;;8.71;5.86;;;;;;;;;;376667;139;865117;-61
2021/06/27 01:11:48;;;;;;;11.20;6.46;;;;;;;;;;374692;141;865712;-62
2021/06/27 01:12:50;;;;;;;7.34;6.41;;;;;;;;;;372809;139;858750;-62
2021/06/27 01:13:51;;;;;;;11.83;7.19;;;;;;;;;;371738;142;857295;-62
2021/06/27 01:14:54;;;;;;;10.76;6.75;;;;;;;;;;372406;140;864968;-62
2021/06/27 01:15:56;;;;;;;7.87;6.76;;;;;;;;;;373547;139;857380;-62
2021/06/27 01:16:58;;;;;;;12.13;7.53;;;;;;;;;;371734;145;857280;-62
2021/06/27 01:17:59;;;;;;;8.99;6.92;;;;;;;;;;371706;142;865119;-62
2021/06/27 01:19:01;;;;;;;12.97;6.80;;;;;;;;;;374145;139;859043;-62
2021/06/27 01:20:03;;;;;;;11.07;6.84;;;;;;;;;;375727;142;858424;-62
2021/06/27 01:21:05;;;;;;;10.48;6.82;;;;;;;;;;371406;139;866475;-62
2021/06/27 01:22:07;;;;;;;11.33;7.15;;;;;;;;;;372338;139;857397;-62
2021/06/27 01:23:09;;;;;;;7.90;7.13;;;;;;;;;;376020;140;857299;-62
2021/06/27 01:24:11;;;;;;;19.38;7.20;;;;;;;;;;378208;142;858180;-63
2021/06/27 01:25:13;;;;;;;11.44;7.23;;;;;;;;;;375316;142;859046;-62
2021/06/27 01:26:15;;;;;;;11.01;7.24;;;;;;;;;;373092;139;865009;-62
2021/06/27 01:27:17;;;;;;;12.56;6.57;;;;;;;;;;371941;143;858647;-62
2021/06/27 01:28:18;;;;;;;13.35;6.45;;;;;;;;;;372818;140;857305;-62
2021/06/27 01:29:20;;;;;;;9.92;6.43;;;;;;;;;;373455;139;864988;-62
2021/06/27 01:30:22;;;;;;;10.15;7.51;;;;;;;;;;377871;142;857373;-62
2021/06/27 01:31:24;;;;;;;12.21;7.01;;;;;;;;;;375431;142;857371;-62
2021/06/27 01:32:26;;;;;;;10.13;7.05;;;;;;;;;;373056;140;859157;-62
2021/06/27 01:33:28;;;;;;;8.46;7.06;;;;;;;;;;381746;139;857372;-62
2021/06/27 01:34:29;;;;;;;14.69;7.51;;;;;;;;;;385535;139;858750;-62
2021/06/27 01:35:31;;;;;;;10.97;7.52;;;;;;;;;;377131;139;857696;-62
2021/06/27 01:36:34;;;;;;;9.86;8.09;;;;;;;;;;376164;139;857858;-62
2021/06/27 01:37:36;;;;;;;11.39;7.44;;;;;;;;;;376665;140;860138;-63
2021/06/27 01:38:37;;;;;;;11.90;7.79;;;;;;;;;;378052;139;857433;-62
2021/06/27 01:39:39;;;;;;;11.84;8.05;;;;;;;;;;374411;139;857862;-62
2021/06/27 01:40:42;;;;;;;9.37;6.79;;;;;;;;;;373051;139;866931;-62
2021/06/27 01:41:47;;;;;;;15.56;6.79;;;;;;;;;;378685;142;857371;-60
2021/06/27 01:42:49;;;;;;;10.98;6.78;;;;;;;;;;373130;140;866021;-61
2021/06/27 01:43:51;;;;;;;13.63;7.72;;;;;;;;;;374320;139;857265;-61
2021/06/27 01:44:52;;;;;;;11.12;7.81;;;;;;;;;;371509;144;865555;-62
2021/06/27 01:45:59;;;;;;;9.61;7.08;;;;;;;;;;373415;139;858367;-62
2021/06/27 01:47:01;;;;;;;15.19;8.22;;;;;;;;;;373660;139;857411;-62
2021/06/27 01:48:04;;;;;;;11.51;6.81;;;;;;;;;;371507;144;859025;-61
2021/06/27 01:49:05;;;;;;;10.03;6.58;;;;;;;;;;372128;139;865005;-61
2021/06/27 01:50:08;;;;;;;8.44;6.45;;;;;;;;;;371808;139;857332;-61
2021/06/27 01:51:09;;;;;;;12.89;7.21;;;;;;;;;;377925;141;858138;-62
2021/06/27 01:52:11;;;;;;;12.73;6.06;;;;;;;;;;374389;142;860300;-62
2021/06/27 01:53:13;;;;;;;10.17;6.45;;;;;;;;;;374094;140;859146;-62
2021/06/27 01:54:15;;;;;;;13.61;7.37;;;;;;;;;;374601;140;859302;-62
2021/06/27 01:55:17;;;;;;;12.09;7.08;;;;;;;;;;375661;139;858413;-62
2021/06/27 01:56:18;;;;;;;13.57;7.24;;;;;;;;;;373934;139;858492;-62
2021/06/27 01:57:20;;;;;;;15.21;7.35;;;;;;;;;;373983;139;864987;-62
2021/06/27 01:58:22;;;;;;;13.24;6.81;;;;;;;;;;371384;140;857274;-62
2021/06/27 01:59:23;;;;;;;13.00;6.93;;;;;;;;;;375920;139;865051;-62
2021/06/27 02:00:27;;;;;;;13.66;6.76;;;;;;;;;;374573;141;857354;-62
2021/06/27 02:01:31;;;;;;;12.11;6.79;;;;;;;;;;377265;138;857514;-62
2021/06/27 02:02:32;;;;;;;9.54;7.06;;;;;;;;;;377621;138;860400;-61
2021/06/27 02:03:34;;;;;;;16.35;7.54;;;;;;;;;;375735;139;858991;-62
2021/06/27 02:04:36;;;;;;;9.20;6.96;;;;;;;;;;373720;139;859562;-62
2021/06/27 02:05:37;;;;;;;13.01;7.21;;;;;;;;;;376917;138;865241;-62
2021/06/27 02:06:41;;;;;;;14.62;7.48;;;;;;;;;;372648;139;857414;-62
2021/06/27 02:07:42;;;;;;;15.36;7.21;;;;;;;;;;374271;139;859369;-61
2021/06/27 02:08:44;;;;;;;8.17;7.00;;;;;;;;;;375342;139;856482;-62
2021/06/27 02:09:46;;;;;;;10.04;6.87;;;;;;;;;;378805;139;856470;-62
2021/06/27 02:10:47;;;;;;;13.56;6.92;;;;;;;;;;374589;140;863974;-62
2021/06/27 02:11:49;;;;;;;7.84;6.69;;;;;;;;;;377690;139;863949;-62
2021/06/27 02:12:51;;;;;;;8.73;6.75;;;;;;;;;;373330;142;856231;-62
2021/06/27 02:13:52;;;;;;;8.81;7.19;;;;;;;;;;375891;139;856268;-62
2021/06/27 02:14:54;;;;;;;12.78;7.27;;;;;;;;;;374471;139;856930;-62
2021/06/27 02:15:56;;;;;;;9.31;6.96;;;;;;;;;;379794;142;863811;-63
2021/06/27 02:16:57;;;;;;;9.85;6.65;;;;;;;;;;376894;141;856519;-62
2021/06/27 02:18:04;;;;;;;10.91;6.47;;;;;;;;;;374032;139;856321;-62
2021/06/27 02:19:05;;;;;;;9.76;6.41;;;;;;;;;;377518;139;856214;-62
2021/06/27 02:20:08;;;;;;;8.58;6.91;;;;;;;;;;379992;142;856183;-61
2021/06/27 02:23:09;;;;;;;11.97;6.04;;;;;;;19.72;72.72;99301.17;374723;141;882060;-59
2021/06/27 02:24:10;;;;;;;9.44;4.99;;;;;;;19.63;72.97;99306.94;366899;146;858782;-59
2021/06/27 02:25:13;;;;;;;10.26;4.74;;;;;;;19.64;73.04;99316.52;362755;145;865169;-59
2021/06/27 02:26:16;;;;;;;11.96;5.13;;;;;;;19.65;73.23;99311.16;364740;145;865201;-59
2021/06/27 02:27:18;;;;;;;10.33;4.45;;;;;;;19.70;72.83;99306.49;363067;147;857427;-59
2021/06/27 02:28:20;;;;;;;9.84;4.70;;;;;;;19.78;72.56;99313.95;361318;145;857421;-59
2021/06/27 02:29:22;;;;;;;9.74;4.21;;;;;;;19.86;72.17;99310.88;365232;145;866162;-59
2021/06/27 02:30:24;;;;;;;9.76;4.14;;;;;;;19.94;71.79;99307.86;362863;144;861685;-59
2021/06/27 02:31:27;;;;;;;9.13;4.57;;;;;;;20.03;71.44;99303.84;360592;146;866848;-59
2021/06/27 02:32:29;;;;;;;9.34;3.92;;;;;;;20.16;71.51;99310.11;362815;145;865593;-59
2021/06/27 02:33:31;;;;;;;10.55;3.82;;;;;;;20.29;71.09;99304.96;361333;148;857380;-59
2021/06/27 02:34:32;;;;;;;7.96;4.27;;;;;;;20.42;70.77;99310.36;359649;146;866796;-59
2021/06/27 02:35:34;;;;;;;11.87;4.05;;;;;;;20.57;70.50;99316.47;363004;145;857384;-59
2021/06/27 02:36:36;;;;;;;7.15;3.92;;;;;;;20.70;69.72;99312.20;365388;145;864918;-60
2021/06/27 02:37:38;;;;;;;8.79;4.05;;;;;;;20.81;69.08;99311.56;365758;147;857655;-59
2021/06/27 02:38:40;;;;;;;11.14;4.46;;;;;;;20.92;68.82;99321.44;364714;146;864949;-59
2021/06/27 02:39:42;;;;;;;10.60;4.70;;;;;;;21.01;68.16;99323.51;362640;145;865105;-60
2021/06/27 02:40:45;;;;;;;5.52;4.42;;;;;;;21.07;67.85;99319.63;359416;148;865888;-59
2021/06/27 02:41:46;;;;;;;8.11;5.04;;;;;;;21.12;67.86;99324.63;354520;148;859343;-59
2021/06/27 02:42:48;;;;;;;8.52;4.64;;;;;;;21.17;68.08;99325.19;358515;147;859094;-59
2021/06/27 02:43:50;;;;;;;9.44;5.61;;;;;;;21.20;67.56;99324.13;356577;147;866684;-58
2021/06/27 02:44:52;;;;;;;8.11;5.84;;;;;;;21.20;67.19;99322.36;357387;150;864999;-59
2021/06/27 02:45:54;;;;;;;10.19;6.11;;;;;;;21.21;67.58;99325.86;359378;148;864773;-59
2021/06/27 02:46:56;;;;;;;8.72;5.40;;;;;;;21.20;67.79;99326.77;357533;147;857330;-59
2021/06/27 02:47:58;;;;;;;16.17;6.06;;;;;;;21.20;67.85;99332.03;356831;148;857399;-60
2021/06/27 02:48:59;;;;;;;10.47;6.04;;;;;;;21.19;67.71;99327.70;357998;149;865049;-59
2021/06/27 02:50:02;;;;;;;10.93;6.06;;;;;;;21.15;67.54;99333.16;358704;147;866790;-59
2021/06/27 02:51:04;;;;;;;10.13;5.82;;;;;;;21.11;67.61;99331.66;359185;148;860142;-59
2021/06/27 02:52:06;;;;;;;12.59;6.38;;;;;;;21.06;67.41;99327.64;358248;148;859697;-59
2021/06/27 02:53:09;;;;;;;9.24;6.21;;;;;;;20.97;67.72;99326.41;359380;147;864924;-59
2021/06/27 02:54:10;;;;;;;7.25;5.65;;;;;;;20.92;68.00;99329.33;356220;147;864953;-60
2021/06/27 02:55:12;;;;;;;6.86;5.70;;;;;;;20.84;68.16;99331.59;357230;147;857927;-61
2021/06/27 02:56:16;;;;;;;11.64;5.88;;;;;;;20.76;68.12;99324.11;357532;147;865160;-61
2021/06/27 02:57:18;;;;;;;8.14;5.74;;;;;;;20.56;68.86;99327.92;358592;148;858673;-60
2021/06/27 02:58:19;;;;;;;8.86;5.89;;;;;;;20.49;69.29;99327.46;355157;149;866635;-61
2021/06/27 02:59:21;;;;;;;7.83;6.37;;;;;;;20.42;69.49;99323.50;359327;148;866118;-61
2021/06/27 03:00:24;;;;;;;7.62;6.35;;;;;;;20.39;69.80;99323.69;358241;147;858084;-60
2021/06/27 03:01:26;;;;;;;9.49;6.53;;;;;;;20.28;69.90;99296.25;354568;150;857538;-60
2021/06/27 03:02:28;;;;;;;11.49;6.59;;;;;;;20.32;70.35;99330.23;352902;152;859023;-59
2021/06/27 03:03:30;;;;;;;9.86;5.19;;;;;;;20.32;70.56;99332.87;357994;148;866848;-60
2021/06/27 03:04:32;;;;;;;10.67;5.18;;;;;;;20.28;70.18;99330.42;358528;147;865661;-60
2021/06/27 03:05:33;;;;;;;6.35;4.25;;;;;;;20.25;70.06;99330.59;358818;150;859019;-60
2021/06/27 03:06:37;;;;;;;6.32;4.50;;;;;;;;;;358029;147;857422;-60
2021/06/27 03:07:39;;;;;;;7.96;4.69;;;;;;;;;;357506;147;859291;-61
2021/06/27 03:08:40;;;;;;;8.02;5.16;;;;;;;;;;352972;152;857951;-61
2021/06/27 03:09:42;;;;;;;6.46;5.08;;;;;;;;;;358300;147;865155;-61
2021/06/27 03:10:44;;;;;;;7.90;5.09;;;;;;;;;;359735;147;864922;-60
2021/06/27 03:11:45;;;;;;;9.11;5.79;;;;;;;;;;359658;149;865020;-60
2021/06/27 03:12:48;;;;;;;9.31;6.21;;;;;;;;;;357429;147;857554;-61
2021/06/27 03:13:49;;;;;;;7.47;5.99;;;;;;;;;;358194;148;857549;-61
2021/06/27 03:14:51;;;;;;;9.47;6.07;;;;;;;;;;359312;147;857249;-59
2021/06/27 03:15:53;;;;;;;10.71;6.16;;;;;;;;;;359398;150;866243;-59
2021/06/27 03:16:54;;;;;;;8.71;6.56;;;;;;;;;;359944;147;858234;-59
2021/06/27 03:17:56;;;;;;;7.81;6.68;;;;;;;;;;357913;147;865401;-60
2021/06/27 03:18:57;;;;;;;9.57;7.51;;;;;;;;;;356464;147;857440;-60
2021/06/27 03:19:59;;;;;;;7.71;6.77;;;;;;;;;;357870;142;856208;-59
2021/06/27 03:21:01;;;;;;;8.91;7.06;;;;;;;;;;354723;149;857357;-59
2021/06/27 03:22:03;;;;;;;8.92;6.23;;;;;;;;;;350895;149;866846;-59
2021/06/27 03:23:04;;;;;;;9.44;6.33;;;;;;;;;;338062;156;859126;-59
2021/06/27 03:24:06;;;;;;;10.43;6.16;;;;;;;;;;341537;151;859883;-57
2021/06/27 03:25:09;;;;;;;12.99;5.96;;;;;;;;;;354259;150;857344;-59
2021/06/27 03:26:11;;;;;;;7.27;6.12;;;;;;;;;;354734;151;857353;-59
2021/06/27 03:27:13;;;;;;;7.54;5.73;;;;;;;;;;351160;151;857702;-59
2021/06/27 03:28:15;;;;;;;16.40;6.89;;;;;;;;;;352400;150;864784;-58
2021/06/27 03:29:16;;;;;;;7.90;6.37;;;;;;;;;;356076;150;857289;-58
2021/06/27 03:30:20;;;;;;;13.08;6.96;;;;;;;;;;354453;150;857273;-60
2021/06/27 03:31:22;;;;;;;7.66;6.66;;;;;;;;;;353873;149;859298;-59
2021/06/27 03:32:23;;;;;;;11.13;6.55;;;;;;;;;;352867;150;857389;-58
2021/06/27 03:33:25;;;;;;;8.06;6.81;;;;;;;;;;350906;150;859447;-58
2021/06/27 03:34:27;;;;;;;8.44;6.24;;;;;;;;;;350719;150;857590;-59
2021/06/27 03:35:28;;;;;;;16.14;7.32;;;;;;;;;;352335;150;859130;-58
2021/06/27 03:36:31;;;;;;;10.43;7.04;;;;;;;;;;352570;150;859074;-58
2021/06/27 03:37:32;;;;;;;9.91;7.22;;;;;;;;;;350576;151;866020;-60
2021/06/27 03:38:46;;;;;;;11.04;6.92;;;;;;;;;;354699;149;865076;-60
2021/06/27 03:39:40;;;;;;;11.22;7.51;;;;;;;;;;354752;150;865015;-61
2021/06/27 03:40:43;;;;;;;9.87;6.74;;;;;;;;;;355328;150;860260;-60
2021/06/27 03:41:48;;;;;;;8.88;6.95;;;;;;;;;;353240;150;866236;-59
2021/06/27 03:42:49;;;;;;;12.98;7.53;;;;;;;;;;355331;150;864161;-59
2021/06/27 03:43:51;;;;;;;8.47;6.90;;;;;;;;;;351989;150;865346;-59
2021/06/27 03:44:53;;;;;;;10.53;7.27;;;;;;;;;;350110;151;859142;-59
2021/06/27 03:45:55;;;;;;;10.58;7.90;;;;;;;;;;352776;150;859221;-60
2021/06/27 03:46:56;;;;;;;11.29;7.01;;;;;;;;;;353110;151;860045;-59
2021/06/27 03:47:58;;;;;;;12.36;7.07;;;;;;;;;;349552;154;865535;-63
2021/06/27 03:49:00;;;;;;;7.58;6.90;;;;;;;;;;351187;149;865484;-60
2021/06/27 03:50:01;;;;;;;11.02;6.95;;;;;;;;;;351180;150;857385;-60
2021/06/27 03:51:03;;;;;;;7.55;6.30;;;;;;;;;;351845;151;865708;-60
2021/06/27 03:52:05;;;;;;;13.96;7.00;;;;;;;;;;351363;151;858430;-62
2021/06/27 03:53:07;;;;;;;12.21;6.36;;;;;;;;;;352645;150;857351;-59
2021/06/27 03:54:08;;;;;;;10.82;6.91;;;;;;;;;;353010;150;858272;-60
2021/06/27 03:55:11;;;;;;;9.51;5.98;;;;;;;;;;351395;150;865126;-61
2021/06/27 03:56:14;;;;;;;13.13;6.29;;;;;;;;;;351695;150;865094;-61
2021/06/27 03:57:16;;;;;;;8.71;6.11;;;;;;;;;;355343;150;866019;-61
2021/06/27 03:58:17;;;;;;;10.31;6.34;;;;;;;;;;352965;151;860677;-60
2021/06/27 03:59:19;;;;;;;10.86;6.76;;;;;;;;;;354211;150;857419;-61
2021/06/27 04:00:21;;;;;;;12.49;6.83;;;;;;;;;;352415;149;857439;-62
2021/06/27 04:01:23;;;;;;;7.40;6.36;;;;;;;;;;354015;150;857386;-63
2021/06/27 04:02:24;;;;;;;13.38;6.31;;;;;;;;;;353591;150;857908;-61
2021/06/27 04:03:26;;;;;;;13.46;6.63;;;;;;;;;;353136;150;857418;-62
2021/06/27 04:04:28;;;;;;;13.21;6.51;;;;;;;;;;351119;151;857430;-60
2021/06/27 04:05:29;;;;;;;12.63;6.65;;;;;;;;;;355419;151;859022;-60
2021/06/27 04:06:31;;;;;;;10.20;6.87;;;;;;;;;;352739;150;865272;-62
2021/06/27 04:07:33;;;;;;;10.85;7.44;;;;;;;;;;351953;150;857315;-63
2021/06/27 04:08:34;;;;;;;12.24;7.79;;;;;;;;;;354135;150;857258;-61
2021/06/27 04:09:36;;;;;;;10.82;6.86;;;;;;;;;;353940;149;857297;-65
2021/06/27 04:10:39;;;;;;;12.39;6.79;;;;;;;;;;354077;150;857518;-62
2021/06/27 04:11:41;;;;;;;8.04;7.07;;;;;;;;;;353883;150;859295;-65
2021/06/27 04:12:42;;;;;;;11.31;7.76;;;;;;;;;;355593;151;857592;-64
2021/06/27 04:13:44;;;;;;;10.94;7.11;;;;;;;;;;353261;150;857486;-63
2021/06/27 04:14:45;;;;;;;8.22;6.79;;;;;;;;;;350403;150;856649;-63
2021/06/27 04:15:47;;;;;;;13.26;8.41;;;;;;;;;;349508;154;857492;-60
2021/06/27 04:16:49;;;;;;;10.99;7.49;;;;;;;;;;350943;150;859155;-63
2021/06/27 04:17:50;;;;;;;7.97;6.76;;;;;;;;;;353743;151;867780;-61
2021/06/27 04:18:52;;;;;;;13.24;6.66;;;;;;;;;;353492;149;859493;-62
2021/06/27 04:19:53;;;;;;;12.30;6.49;;;;;;;;;;350077;150;859117;-63
2021/06/27 04:20:55;;;;;;;10.93;7.42;;;;;;;;;;353892;148;858847;-61
2021/06/27 04:21:57;;;;;;;11.79;6.62;;;;;;;;;;349452;150;865613;-63
2021/06/27 04:22:58;;;;;;;10.16;6.14;;;;;;;;;;348103;149;864979;-64
2021/06/27 04:24:00;;;;;;;8.71;7.07;;;;;;;;;;343243;153;857493;-62
2021/06/27 04:25:02;;;;;;;9.43;5.99;;;;;;;;;;350581;150;866767;-60
2021/06/27 04:26:04;;;;;;;12.82;6.28;;;;;;;;;;347196;151;857505;-61
2021/06/27 04:27:06;;;;;;;17.04;6.52;;;;;;;;;;348394;152;859283;-63
2021/06/27 04:28:07;;;;;;;9.48;7.09;;;;;;;;;;347079;152;857482;-63
2021/06/27 04:29:13;;;;;;;14.16;7.71;;;;;;;;;;345020;152;859461;-61
2021/06/27 04:30:13;;;;;;;12.24;7.38;;;;;;;;;;348921;152;857385;-62
2021/06/27 04:31:15;;;;;;;10.50;7.75;;;;;;;;;;347575;152;857839;-60
2021/06/27 04:32:16;;;;;;;10.61;7.87;;;;;;;;;;349978;153;857382;-61
2021/06/27 04:33:18;;;;;;;11.38;8.03;;;;;;;;;;348675;153;857355;-63
2021/06/27 04:34:20;;;;;;;10.02;7.58;;;;;;;;;;346832;151;857285;-64
2021/06/27 04:35:22;;;;;;;11.35;7.16;;;;;;;;;;348268;152;859108;-64
2021/06/27 04:36:25;;;;;;;8.33;7.11;;;;;;;;;;345792;154;859091;-66
2021/06/27 04:37:26;;;;;;;10.40;7.46;;;;;;;;;;345971;152;858609;-65
2021/06/27 04:38:28;;;;;;;11.52;7.30;;;;;;;;;;346500;152;859260;-65
2021/06/27 04:39:30;;;;;;;9.42;7.65;;;;;;;;;;351021;152;857300;-66
2021/06/27 04:40:32;;;;;;;12.95;8.37;;;;;;;;;;345026;153;857355;-64
2021/06/27 04:41:34;;;;;;;9.49;7.99;;;;;;;;;;346490;152;857339;-64
2021/06/27 04:42:36;;;;;;;11.74;7.47;;;;;;;;;;348332;153;857310;-64
2021/06/27 04:43:37;;;;;;;11.61;7.39;;;;;;;;;;348178;153;867106;-64
2021/06/27 04:44:39;;;;;;;9.74;7.96;;;;;;;;;;348081;152;859236;-62
2021/06/27 04:45:41;;;;;;;9.54;7.66;;;;;;;;;;349181;152;866142;-61
2021/06/27 04:46:43;;;;;;;9.43;7.49;;;;;;;;;;346120;151;857702;-65
2021/06/27 04:47:44;;;;;;;7.96;6.92;;;;;;;;;;345489;152;867415;-65
2021/06/27 04:48:46;;;;;;;11.83;7.62;;;;;;;;;;348240;152;858310;-67
2021/06/27 04:49:48;;;;;;;11.69;7.65;;;;;;;;;;349245;152;857575;-64
2021/06/27 04:50:49;;;;;;;12.85;7.04;;;;;;;;;;348338;153;859239;-68
2021/06/27 04:51:51;;;;;;;9.96;6.80;;;;;;;;;;346977;152;860575;-64
2021/06/27 04:52:53;;;;;;;14.76;7.20;;;;;;;;;;347624;151;858356;-66
2021/06/27 04:53:54;;;;;;;10.61;7.40;;;;;;;;;;347506;153;857268;-66
2021/06/27 04:54:56;;;;;;;13.09;6.95;;;;;;;;;;346212;153;857360;-64
2021/06/27 04:55:58;;;;;;;8.45;7.24;;;;;;;;;;348079;152;857415;-66
2021/06/27 04:57:00;;;;;;;8.33;6.81;;;;;;;;;;348454;151;857494;-66
2021/06/27 04:58:01;;;;;;;10.26;7.29;;;;;;;;;;348146;151;857330;-65
2021/06/27 04:59:03;;;;;;;12.10;7.22;;;;;;;;;;349153;151;857390;-64
2021/06/27 05:00:05;;;;;;;11.15;6.98;;;;;;;;;;348911;151;857369;-67
2021/06/27 05:01:07;;;;;;;9.87;7.17;;;;;;;;;;351498;149;867201;-68
2021/06/27 05:02:09;;;;;;;11.67;7.66;;;;;;;;;;350231;152;859233;-68
2021/06/27 05:03:10;;;;;;;10.23;7.66;;;;;;;;;;351975;151;865042;-66
2021/06/27 05:04:12;;;;;;;10.43;7.50;;;;;;;;;;346317;153;865024;-64
2021/06/27 05:05:14;;;;;;;11.26;7.07;;;;;;;;;;349835;153;857491;-70
2021/06/27 05:06:17;;;;;;;13.58;7.05;;;;;;;;;;349462;151;857317;-64
2021/06/27 05:07:19;;;;;;;8.33;7.01;;;;;;;;;;352097;151;858773;-65
2021/06/27 05:08:20;;;;;;;11.09;7.35;;;;;;;;;;351005;152;865107;-66
2021/06/27 05:09:22;;;;;;;9.61;7.57;;;;;;;;;;348408;150;857355;-61
2021/06/27 05:10:25;;;;;;;8.94;6.70;;;;;;;;;;347991;151;857389;-63
2021/06/27 05:11:27;;;;;;;11.02;7.15;;;;;;;;;;347892;151;858369;-65
2021/06/27 05:12:28;;;;;;;8.36;6.84;;;;;;;;;;350824;150;857415;-63
2021/06/27 05:13:30;;;;;;;10.21;7.19;;;;;;;;;;349820;151;859103;-64
2021/06/27 05:14:31;;;;;;;14.40;7.11;;;;;;;;;;350178;151;859561;-64
2021/06/27 05:15:33;;;;;;;8.78;6.91;;;;;;;;;;351071;150;858717;-66
2021/06/27 05:16:35;;;;;;;9.20;6.91;;;;;;;;;;346159;152;857488;-66
2021/06/27 05:17:37;;;;;;;8.99;7.01;;;;;;;;;;348235;151;858921;-65
2021/06/27 05:18:38;;;;;;;9.51;7.04;;;;;;;;;;351299;151;857545;-65
2021/06/27 05:19:40;;;;;;;11.53;6.98;;;;;;;;;;348143;150;859630;-62
2021/06/27 05:20:42;;;;;;;10.61;6.75;;;;;;;;;;348891;151;859359;-62
2021/06/27 05:21:44;;;;;;;7.61;6.37;;;;;;;;;;355856;150;865244;-64
2021/06/27 05:22:45;;;;;;;8.90;6.75;;;;;;;;;;356534;148;865210;-65
2021/06/27 05:23:47;;;;;;;7.59;6.68;;;;;;;;;;356719;148;857461;-64
2021/06/27 05:24:48;;;;;;;7.40;6.64;;;;;;;;;;356978;150;857370;-64
2021/06/27 05:25:51;;;;;;;11.05;6.53;;;;;;;;;;354582;150;857446;-61
2021/06/27 05:26:53;;;;;;;7.98;6.19;;;;;;;;;;353221;150;857374;-64
2021/06/27 05:27:55;;;;;;;8.03;5.73;;;;;;;;;;357086;148;857321;-60
2021/06/27 05:28:56;;;;;;;9.69;6.27;;;;;;;;;;347676;151;858180;-65
2021/06/27 05:29:58;;;;;;;8.33;5.82;;;;;;;;;;354247;150;865841;-65
2021/06/27 05:31:00;;;;;;;7.22;5.71;;;;;;;;;;354995;147;857347;-63
2021/06/27 05:32:01;;;;;;;10.23;5.35;;;;;;;;;;352486;150;864888;-65
2021/06/27 05:33:03;;;;;;;5.93;5.33;;;;;;;;;;352286;150;858018;-65
2021/06/27 05:34:05;;;;;;;7.43;5.68;;;;;;;;;;354778;148;857459;-63
2021/06/27 05:35:07;;;;;;;8.81;5.09;;;;;;;;;;347365;153;859130;-66
2021/06/27 05:36:09;;;;;;;6.20;5.49;;;;;;;;;;349113;151;857312;-63
2021/06/27 05:37:10;;;;;;;7.20;5.78;;;;;;;;;;353236;150;857390;-65
2021/06/27 05:38:12;;;;;;;6.91;5.14;;;;;;;;;;352795;151;857485;-65
2021/06/27 05:39:14;;;;;;;6.44;5.70;;;;;;;;;;357102;150;857345;-65
2021/06/27 05:40:17;;;;;;;7.72;5.94;;;;;;;;;;356175;148;866681;-65
2021/06/27 05:41:18;;;;;;;10.13;6.30;;;;;;;;;;354128;150;857395;-65
2021/06/27 05:42:20;;;;;;;8.76;5.81;;;;;;;;;;355053;150;858178;-67
2021/06/27 05:43:22;;;;;;;8.18;5.51;;;;;;;;;;357000;150;866452;-62
2021/06/27 05:44:24;;;;;;;6.37;5.48;;;;;;;;;;355665;148;866112;-66
2021/06/27 05:45:25;;;;;;;7.09;5.63;;;;;;;;;;351522;150;857444;-64
2021/06/27 05:46:27;;;;;;;10.72;5.85;;;;;;;;;;356185;150;865884;-65
2021/06/27 05:47:29;;;;;;;8.76;5.84;;;;;;;;;;356316;149;865331;-65
2021/06/27 05:48:30;;;;;;;8.45;5.31;;;;;;;;;;352250;150;859675;-64
2021/06/27 05:49:32;;;;;;;23.33;5.89;;;;;;;;;;352615;148;858410;-65
2021/06/27 05:50:35;;;;;;;9.28;6.23;;;;;;;;;;351875;151;857509;-65
2021/06/27 05:51:37;;;;;;;7.91;5.68;;;;;;;;;;356968;148;859042;-65
2021/06/27 05:52:39;;;;;;;6.33;5.21;;;;;;;;;;356960;150;858639;-65
2021/06/27 05:53:42;;;;;;;8.10;5.29;;;;;;;;;;352540;151;858225;-65